sensor_id;sensor_type;location;lat;lon;timestamp;P1;durP1;ratioP1;P2;durP2;ratioP2
25175;SDS011;13135;55.166;61.286;2023-09-19T00:00:00;4.03;;;2.37;;
25175;SDS011;13135;55.166;61.286;2023-09-19T00:02:51;4.17;;;2.33;;
25175;SDS011;13135;55.166;61.286;2023-09-19T00:05:39;5.10;;;2.70;;
25175;SDS011;13135;55.166;61.286;2023-09-19T00:08:23;3.63;;;2.40;;
25175;SDS011;13135;55.166;61.286;2023-09-19T00:11:08;6.27;;;2.47;;
25175;SDS011;13135;55.166;61.286;2023-09-19T00:13:53;4.83;;;2.37;;
25175;SDS011;13135;55.166;61.286;2023-09-19T00:16:39;5.90;;;2.77;;
25175;SDS011;13135;55.166;61.286;2023-09-19T00:19:21;2.70;;;2.33;;
25175;SDS011;13135;55.166;61.286;2023-09-19T00:22:06;8.80;;;2.57;;
25175;SDS011;13135;55.166;61.286;2023-09-19T00:24:51;3.23;;;2.20;;
25175;SDS011;13135;55.166;61.286;2023-09-19T00:27:35;6.43;;;2.50;;
25175;SDS011;13135;55.166;61.286;2023-09-19T00:30:19;5.33;;;2.53;;
25175;SDS011;13135;55.166;61.286;2023-09-19T00:32:59;5.30;;;2.40;;
25175;SDS011;13135;55.166;61.286;2023-09-19T00:35:47;4.13;;;2.37;;
25175;SDS011;13135;55.166;61.286;2023-09-19T00:38:34;4.07;;;2.80;;
25175;SDS011;13135;55.166;61.286;2023-09-19T00:41:19;5.47;;;2.63;;
25175;SDS011;13135;55.166;61.286;2023-09-19T00:44:12;4.97;;;2.40;;
25175;SDS011;13135;55.166;61.286;2023-09-19T00:47:26;5.27;;;2.40;;
25175;SDS011;13135;55.166;61.286;2023-09-19T00:50:10;5.53;;;2.40;;
25175;SDS011;13135;55.166;61.286;2023-09-19T00:52:54;4.70;;;2.53;;
25175;SDS011;13135;55.166;61.286;2023-09-19T00:55:40;4.17;;;2.80;;
25175;SDS011;13135;55.166;61.286;2023-09-19T00:58:24;3.03;;;2.20;;
25175;SDS011;13135;55.166;61.286;2023-09-19T01:01:08;3.33;;;2.57;;
25175;SDS011;13135;55.166;61.286;2023-09-19T01:03:53;3.20;;;2.27;;
25175;SDS011;13135;55.166;61.286;2023-09-19T01:06:37;5.77;;;3.03;;
25175;SDS011;13135;55.166;61.286;2023-09-19T01:09:21;4.30;;;2.40;;
25175;SDS011;13135;55.166;61.286;2023-09-19T01:12:06;3.87;;;2.53;;
25175;SDS011;13135;55.166;61.286;2023-09-19T01:14:54;3.27;;;2.33;;
25175;SDS011;13135;55.166;61.286;2023-09-19T01:17:41;3.80;;;2.50;;
25175;SDS011;13135;55.166;61.286;2023-09-19T01:20:27;4.13;;;2.83;;
25175;SDS011;13135;55.166;61.286;2023-09-19T01:23:14;4.30;;;2.70;;
25175;SDS011;13135;55.166;61.286;2023-09-19T01:26:18;4.63;;;2.40;;
25175;SDS011;13135;55.166;61.286;2023-09-19T01:29:13;6.20;;;3.00;;
25175;SDS011;13135;55.166;61.286;2023-09-19T01:32:04;5.83;;;2.60;;
25175;SDS011;13135;55.166;61.286;2023-09-19T01:34:49;3.37;;;2.63;;
25175;SDS011;13135;55.166;61.286;2023-09-19T01:37:32;4.60;;;2.80;;
25175;SDS011;13135;55.166;61.286;2023-09-19T01:40:17;7.40;;;4.43;;
25175;SDS011;13135;55.166;61.286;2023-09-19T01:43:05;4.33;;;2.80;;
25175;SDS011;13135;55.166;61.286;2023-09-19T01:45:59;3.90;;;2.70;;
25175;SDS011;13135;55.166;61.286;2023-09-19T01:49:04;3.97;;;2.57;;
25175;SDS011;13135;55.166;61.286;2023-09-19T01:51:56;3.50;;;2.50;;
25175;SDS011;13135;55.166;61.286;2023-09-19T01:54:42;5.43;;;2.43;;
25175;SDS011;13135;55.166;61.286;2023-09-19T01:57:29;6.07;;;2.77;;
25175;SDS011;13135;55.166;61.286;2023-09-19T02:00:14;3.77;;;2.70;;
25175;SDS011;13135;55.166;61.286;2023-09-19T02:02:59;4.00;;;2.57;;
25175;SDS011;13135;55.166;61.286;2023-09-19T02:05:50;4.70;;;3.00;;
25175;SDS011;13135;55.166;61.286;2023-09-19T02:08:33;5.17;;;3.00;;
25175;SDS011;13135;55.166;61.286;2023-09-19T02:11:17;5.70;;;2.80;;
25175;SDS011;13135;55.166;61.286;2023-09-19T02:14:02;3.53;;;3.03;;
25175;SDS011;13135;55.166;61.286;2023-09-19T02:16:47;12.67;;;6.67;;
25175;SDS011;13135;55.166;61.286;2023-09-19T02:19:32;6.00;;;3.43;;
25175;SDS011;13135;55.166;61.286;2023-09-19T02:22:15;10.27;;;4.17;;
25175;SDS011;13135;55.166;61.286;2023-09-19T02:24:56;12.53;;;3.70;;
25175;SDS011;13135;55.166;61.286;2023-09-19T02:27:41;6.57;;;3.67;;
25175;SDS011;13135;55.166;61.286;2023-09-19T02:30:26;7.23;;;3.40;;
25175;SDS011;13135;55.166;61.286;2023-09-19T02:33:11;6.77;;;3.50;;
25175;SDS011;13135;55.166;61.286;2023-09-19T02:35:56;7.43;;;3.10;;
25175;SDS011;13135;55.166;61.286;2023-09-19T02:38:40;4.63;;;3.33;;
25175;SDS011;13135;55.166;61.286;2023-09-19T02:41:27;3.87;;;2.83;;
25175;SDS011;13135;55.166;61.286;2023-09-19T02:44:08;10.03;;;3.30;;
25175;SDS011;13135;55.166;61.286;2023-09-19T02:46:53;13.30;;;3.30;;
25175;SDS011;13135;55.166;61.286;2023-09-19T02:49:37;3.50;;;2.43;;
25175;SDS011;13135;55.166;61.286;2023-09-19T02:52:21;6.83;;;3.00;;
25175;SDS011;13135;55.166;61.286;2023-09-19T02:55:06;3.60;;;2.60;;
25175;SDS011;13135;55.166;61.286;2023-09-19T02:57:52;6.27;;;2.93;;
25175;SDS011;13135;55.166;61.286;2023-09-19T03:00:36;4.53;;;2.70;;
25175;SDS011;13135;55.166;61.286;2023-09-19T03:03:21;3.77;;;2.40;;
25175;SDS011;13135;55.166;61.286;2023-09-19T03:06:07;7.73;;;2.90;;
25175;SDS011;13135;55.166;61.286;2023-09-19T03:08:52;6.87;;;3.30;;
25175;SDS011;13135;55.166;61.286;2023-09-19T03:11:36;4.80;;;2.60;;
25175;SDS011;13135;55.166;61.286;2023-09-19T03:14:20;5.67;;;2.60;;
25175;SDS011;13135;55.166;61.286;2023-09-19T03:17:05;7.03;;;2.83;;
25175;SDS011;13135;55.166;61.286;2023-09-19T03:19:50;3.67;;;2.60;;
25175;SDS011;13135;55.166;61.286;2023-09-19T03:22:35;5.33;;;2.83;;
25175;SDS011;13135;55.166;61.286;2023-09-19T03:25:22;19.70;;;11.63;;
25175;SDS011;13135;55.166;61.286;2023-09-19T03:28:06;15.87;;;8.03;;
25175;SDS011;13135;55.166;61.286;2023-09-19T03:31:06;5.13;;;3.67;;
25175;SDS011;13135;55.166;61.286;2023-09-19T03:33:47;5.93;;;3.87;;
25175;SDS011;13135;55.166;61.286;2023-09-19T03:36:33;5.43;;;3.50;;
25175;SDS011;13135;55.166;61.286;2023-09-19T03:39:14;25.03;;;14.60;;
25175;SDS011;13135;55.166;61.286;2023-09-19T03:42:00;7.30;;;4.20;;
25175;SDS011;13135;55.166;61.286;2023-09-19T03:44:44;7.53;;;3.70;;
25175;SDS011;13135;55.166;61.286;2023-09-19T03:47:29;11.70;;;4.93;;
25175;SDS011;13135;55.166;61.286;2023-09-19T03:50:14;4.77;;;3.10;;
25175;SDS011;13135;55.166;61.286;2023-09-19T03:52:59;4.67;;;3.20;;
25175;SDS011;13135;55.166;61.286;2023-09-19T03:55:44;8.70;;;3.65;;
25175;SDS011;13135;55.166;61.286;2023-09-19T03:58:28;5.90;;;3.00;;
25175;SDS011;13135;55.166;61.286;2023-09-19T04:01:12;10.10;;;3.90;;
25175;SDS011;13135;55.166;61.286;2023-09-19T04:03:59;8.63;;;3.30;;
25175;SDS011;13135;55.166;61.286;2023-09-19T04:06:41;6.13;;;3.70;;
25175;SDS011;13135;55.166;61.286;2023-09-19T04:09:26;7.23;;;3.60;;
25175;SDS011;13135;55.166;61.286;2023-09-19T04:12:09;5.27;;;3.80;;
25175;SDS011;13135;55.166;61.286;2023-09-19T04:14:54;10.60;;;4.10;;
25175;SDS011;13135;55.166;61.286;2023-09-19T04:17:39;9.00;;;3.80;;
25175;SDS011;13135;55.166;61.286;2023-09-19T04:20:24;15.50;;;3.50;;
25175;SDS011;13135;55.166;61.286;2023-09-19T04:23:11;5.70;;;3.47;;
25175;SDS011;13135;55.166;61.286;2023-09-19T04:25:58;6.73;;;3.27;;
25175;SDS011;13135;55.166;61.286;2023-09-19T04:28:42;10.60;;;3.60;;
25175;SDS011;13135;55.166;61.286;2023-09-19T04:31:29;6.27;;;3.33;;
25175;SDS011;13135;55.166;61.286;2023-09-19T04:34:14;4.40;;;3.20;;
25175;SDS011;13135;55.166;61.286;2023-09-19T04:36:59;7.23;;;4.23;;
25175;SDS011;13135;55.166;61.286;2023-09-19T04:39:44;10.93;;;4.90;;
25175;SDS011;13135;55.166;61.286;2023-09-19T04:42:30;6.03;;;4.50;;
25175;SDS011;13135;55.166;61.286;2023-09-19T04:45:14;10.10;;;4.53;;
25175;SDS011;13135;55.166;61.286;2023-09-19T04:47:58;17.20;;;5.65;;
25175;SDS011;13135;55.166;61.286;2023-09-19T04:50:43;12.30;;;5.57;;
25175;SDS011;13135;55.166;61.286;2023-09-19T04:53:27;7.65;;;5.12;;
25175;SDS011;13135;55.166;61.286;2023-09-19T04:56:12;8.57;;;6.05;;
25175;SDS011;13135;55.166;61.286;2023-09-19T04:58:57;10.88;;;5.72;;
25175;SDS011;13135;55.166;61.286;2023-09-19T05:01:45;9.98;;;6.20;;
25175;SDS011;13135;55.166;61.286;2023-09-19T05:04:29;7.87;;;5.62;;
25175;SDS011;13135;55.166;61.286;2023-09-19T05:07:10;7.45;;;4.85;;
25175;SDS011;13135;55.166;61.286;2023-09-19T05:09:55;9.07;;;5.40;;
25175;SDS011;13135;55.166;61.286;2023-09-19T05:12:40;6.75;;;4.40;;
25175;SDS011;13135;55.166;61.286;2023-09-19T05:15:24;7.65;;;4.47;;
25175;SDS011;13135;55.166;61.286;2023-09-19T05:18:09;5.95;;;4.50;;
25175;SDS011;13135;55.166;61.286;2023-09-19T05:20:56;6.60;;;5.30;;
25175;SDS011;13135;55.166;61.286;2023-09-19T05:23:40;8.85;;;4.75;;
25175;SDS011;13135;55.166;61.286;2023-09-19T05:26:23;5.55;;;4.65;;
25175;SDS011;13135;55.166;61.286;2023-09-19T05:29:08;5.87;;;4.62;;
25175;SDS011;13135;55.166;61.286;2023-09-19T05:31:53;6.47;;;4.40;;
25175;SDS011;13135;55.166;61.286;2023-09-19T05:34:38;10.32;;;5.03;;
25175;SDS011;13135;55.166;61.286;2023-09-19T05:37:23;6.75;;;4.87;;
25175;SDS011;13135;55.166;61.286;2023-09-19T05:40:08;6.60;;;4.80;;
25175;SDS011;13135;55.166;61.286;2023-09-19T05:42:55;9.63;;;4.95;;
25175;SDS011;13135;55.166;61.286;2023-09-19T05:49:06;8.43;;;5.25;;
25175;SDS011;13135;55.166;61.286;2023-09-19T05:51:51;6.37;;;4.72;;
25175;SDS011;13135;55.166;61.286;2023-09-19T05:54:36;7.97;;;5.25;;
25175;SDS011;13135;55.166;61.286;2023-09-19T05:57:20;6.03;;;4.72;;
25175;SDS011;13135;55.166;61.286;2023-09-19T06:00:06;7.47;;;4.68;;
25175;SDS011;13135;55.166;61.286;2023-09-19T06:02:51;8.10;;;4.87;;
25175;SDS011;13135;55.166;61.286;2023-09-19T06:05:35;8.02;;;5.40;;
25175;SDS011;13135;55.166;61.286;2023-09-19T06:08:20;7.15;;;4.95;;
25175;SDS011;13135;55.166;61.286;2023-09-19T06:11:05;19.00;;;11.82;;
25175;SDS011;13135;55.166;61.286;2023-09-19T06:13:49;6.53;;;5.62;;
25175;SDS011;13135;55.166;61.286;2023-09-19T06:16:33;6.12;;;4.53;;
25175;SDS011;13135;55.166;61.286;2023-09-19T06:19:18;8.77;;;4.78;;
25175;SDS011;13135;55.166;61.286;2023-09-19T06:22:03;6.53;;;4.50;;
25175;SDS011;13135;55.166;61.286;2023-09-19T06:24:48;5.87;;;4.57;;
25175;SDS011;13135;55.166;61.286;2023-09-19T06:27:35;8.88;;;4.90;;
25175;SDS011;13135;55.166;61.286;2023-09-19T06:30:18;5.82;;;4.60;;
25175;SDS011;13135;55.166;61.286;2023-09-19T06:33:03;7.47;;;4.75;;
25175;SDS011;13135;55.166;61.286;2023-09-19T06:35:48;5.93;;;4.40;;
25175;SDS011;13135;55.166;61.286;2023-09-19T06:38:33;6.40;;;4.65;;
25175;SDS011;13135;55.166;61.286;2023-09-19T06:41:18;7.22;;;4.53;;
25175;SDS011;13135;55.166;61.286;2023-09-19T06:44:02;6.75;;;4.62;;
25175;SDS011;13135;55.166;61.286;2023-09-19T06:46:47;5.82;;;4.82;;
25175;SDS011;13135;55.166;61.286;2023-09-19T06:49:32;6.45;;;5.05;;
25175;SDS011;13135;55.166;61.286;2023-09-19T06:52:17;6.50;;;4.50;;
25175;SDS011;13135;55.166;61.286;2023-09-19T06:55:02;6.95;;;4.43;;
25175;SDS011;13135;55.166;61.286;2023-09-19T06:57:47;10.32;;;4.85;;
25175;SDS011;13135;55.166;61.286;2023-09-19T07:00:31;8.10;;;4.93;;
25175;SDS011;13135;55.166;61.286;2023-09-19T07:03:16;7.12;;;5.12;;
25175;SDS011;13135;55.166;61.286;2023-09-19T07:06:01;6.60;;;4.70;;
25175;SDS011;13135;55.166;61.286;2023-09-19T07:08:45;5.93;;;4.45;;
25175;SDS011;13135;55.166;61.286;2023-09-19T07:11:30;6.80;;;4.45;;
25175;SDS011;13135;55.166;61.286;2023-09-19T07:14:14;9.65;;;5.22;;
25175;SDS011;13135;55.166;61.286;2023-09-19T07:17:04;7.45;;;5.55;;
25175;SDS011;13135;55.166;61.286;2023-09-19T07:19:49;7.28;;;4.97;;
25175;SDS011;13135;55.166;61.286;2023-09-19T07:22:33;6.78;;;4.78;;
25175;SDS011;13135;55.166;61.286;2023-09-19T07:25:17;7.53;;;5.40;;
25175;SDS011;13135;55.166;61.286;2023-09-19T07:28:02;9.00;;;4.90;;
25175;SDS011;13135;55.166;61.286;2023-09-19T07:30:47;5.97;;;5.10;;
25175;SDS011;13135;55.166;61.286;2023-09-19T07:33:33;8.30;;;5.03;;
25175;SDS011;13135;55.166;61.286;2023-09-19T07:36:18;9.30;;;5.57;;
25175;SDS011;13135;55.166;61.286;2023-09-19T07:39:03;8.20;;;4.82;;
25175;SDS011;13135;55.166;61.286;2023-09-19T07:41:48;6.65;;;5.12;;
25175;SDS011;13135;55.166;61.286;2023-09-19T07:44:34;7.50;;;5.57;;
25175;SDS011;13135;55.166;61.286;2023-09-19T07:47:17;7.78;;;5.25;;
25175;SDS011;13135;55.166;61.286;2023-09-19T07:50:02;7.40;;;5.00;;
25175;SDS011;13135;55.166;61.286;2023-09-19T07:52:47;7.82;;;5.55;;
25175;SDS011;13135;55.166;61.286;2023-09-19T07:55:31;7.45;;;5.43;;
25175;SDS011;13135;55.166;61.286;2023-09-19T07:58:16;8.35;;;5.10;;
25175;SDS011;13135;55.166;61.286;2023-09-19T08:01:02;5.80;;;4.95;;
25175;SDS011;13135;55.166;61.286;2023-09-19T08:03:51;7.82;;;5.15;;
25175;SDS011;13135;55.166;61.286;2023-09-19T08:06:35;7.53;;;5.12;;
25175;SDS011;13135;55.166;61.286;2023-09-19T08:09:22;5.97;;;4.72;;
25175;SDS011;13135;55.166;61.286;2023-09-19T08:12:09;7.40;;;5.25;;
25175;SDS011;13135;55.166;61.286;2023-09-19T08:14:56;8.88;;;5.30;;
25175;SDS011;13135;55.166;61.286;2023-09-19T08:17:41;9.40;;;4.80;;
25175;SDS011;13135;55.166;61.286;2023-09-19T08:20:27;8.73;;;5.05;;
25175;SDS011;13135;55.166;61.286;2023-09-19T08:23:12;6.35;;;5.32;;
25175;SDS011;13135;55.166;61.286;2023-09-19T08:25:57;7.00;;;4.93;;
25175;SDS011;13135;55.166;61.286;2023-09-19T08:28:41;6.65;;;5.25;;
25175;SDS011;13135;55.166;61.286;2023-09-19T08:31:26;8.20;;;5.50;;
25175;SDS011;13135;55.166;61.286;2023-09-19T08:34:10;6.57;;;5.62;;
25175;SDS011;13135;55.166;61.286;2023-09-19T08:36:55;8.73;;;5.60;;
25175;SDS011;13135;55.166;61.286;2023-09-19T08:39:40;7.37;;;5.22;;
25175;SDS011;13135;55.166;61.286;2023-09-19T08:42:25;8.93;;;5.30;;
25175;SDS011;13135;55.166;61.286;2023-09-19T08:45:08;8.98;;;5.72;;
25175;SDS011;13135;55.166;61.286;2023-09-19T08:48:00;8.70;;;5.12;;
25175;SDS011;13135;55.166;61.286;2023-09-19T08:50:48;6.95;;;5.28;;
25175;SDS011;13135;55.166;61.286;2023-09-19T08:53:42;6.20;;;5.03;;
25175;SDS011;13135;55.166;61.286;2023-09-19T08:56:26;8.77;;;5.20;;
25175;SDS011;13135;55.166;61.286;2023-09-19T08:59:11;9.93;;;7.15;;
25175;SDS011;13135;55.166;61.286;2023-09-19T09:01:55;8.43;;;5.03;;
25175;SDS011;13135;55.166;61.286;2023-09-19T09:04:41;8.05;;;6.00;;
25175;SDS011;13135;55.166;61.286;2023-09-19T09:07:25;8.55;;;5.43;;
25175;SDS011;13135;55.166;61.286;2023-09-19T09:10:10;7.00;;;5.28;;
25175;SDS011;13135;55.166;61.286;2023-09-19T09:12:57;8.80;;;5.30;;
25175;SDS011;13135;55.166;61.286;2023-09-19T09:15:41;8.07;;;5.22;;
25175;SDS011;13135;55.166;61.286;2023-09-19T09:18:26;8.32;;;5.07;;
25175;SDS011;13135;55.166;61.286;2023-09-19T09:21:10;6.53;;;5.07;;
25175;SDS011;13135;55.166;61.286;2023-09-19T09:23:56;8.60;;;5.25;;
25175;SDS011;13135;55.166;61.286;2023-09-19T09:26:43;6.30;;;4.93;;
25175;SDS011;13135;55.166;61.286;2023-09-19T09:29:45;8.55;;;4.43;;
25175;SDS011;13135;55.166;61.286;2023-09-19T09:32:29;6.87;;;4.40;;
25175;SDS011;13135;55.166;61.286;2023-09-19T09:35:15;6.80;;;4.60;;
25175;SDS011;13135;55.166;61.286;2023-09-19T09:38:00;7.18;;;4.28;;
25175;SDS011;13135;55.166;61.286;2023-09-19T09:40:46;8.30;;;3.97;;
25175;SDS011;13135;55.166;61.286;2023-09-19T09:43:33;6.68;;;3.95;;
25175;SDS011;13135;55.166;61.286;2023-09-19T09:46:18;5.80;;;3.83;;
25175;SDS011;13135;55.166;61.286;2023-09-19T09:49:06;5.93;;;3.65;;
25175;SDS011;13135;55.166;61.286;2023-09-19T09:51:58;5.35;;;3.78;;
25175;SDS011;13135;55.166;61.286;2023-09-19T09:57:42;4.90;;;3.45;;
25175;SDS011;13135;55.166;61.286;2023-09-19T10:00:28;6.28;;;4.18;;
25175;SDS011;13135;55.166;61.286;2023-09-19T10:03:20;7.22;;;4.30;;
25175;SDS011;13135;55.166;61.286;2023-09-19T10:06:07;8.77;;;4.70;;
25175;SDS011;13135;55.166;61.286;2023-09-19T10:11:47;7.25;;;4.82;;
25175;SDS011;13135;55.166;61.286;2023-09-19T10:14:34;7.55;;;4.32;;
25175;SDS011;13135;55.166;61.286;2023-09-19T10:17:19;7.07;;;4.43;;
25175;SDS011;13135;55.166;61.286;2023-09-19T10:20:04;8.55;;;4.62;;
25175;SDS011;13135;55.166;61.286;2023-09-19T10:22:51;8.77;;;5.12;;
25175;SDS011;13135;55.166;61.286;2023-09-19T10:25:37;13.25;;;5.60;;
25175;SDS011;13135;55.166;61.286;2023-09-19T10:28:23;9.30;;;5.35;;
25175;SDS011;13135;55.166;61.286;2023-09-19T10:31:08;13.68;;;5.85;;
25175;SDS011;13135;55.166;61.286;2023-09-19T10:33:52;8.10;;;5.47;;
25175;SDS011;13135;55.166;61.286;2023-09-19T10:36:34;11.45;;;5.62;;
25175;SDS011;13135;55.166;61.286;2023-09-19T10:39:18;14.63;;;6.25;;
25175;SDS011;13135;55.166;61.286;2023-09-19T10:42:04;46.05;;;30.15;;
25175;SDS011;13135;55.166;61.286;2023-09-19T10:44:51;36.65;;;24.02;;
25175;SDS011;13135;55.166;61.286;2023-09-19T10:47:35;19.75;;;12.88;;
25175;SDS011;13135;55.166;61.286;2023-09-19T10:50:22;14.95;;;10.48;;
25175;SDS011;13135;55.166;61.286;2023-09-19T10:53:07;19.52;;;13.75;;
25175;SDS011;13135;55.166;61.286;2023-09-19T10:55:53;14.38;;;8.70;;
25175;SDS011;13135;55.166;61.286;2023-09-19T10:58:41;10.55;;;8.00;;
25175;SDS011;13135;55.166;61.286;2023-09-19T11:01:45;11.15;;;6.95;;
25175;SDS011;13135;55.166;61.286;2023-09-19T11:04:33;9.93;;;6.68;;
25175;SDS011;13135;55.166;61.286;2023-09-19T11:07:18;10.43;;;6.15;;
25175;SDS011;13135;55.166;61.286;2023-09-19T11:10:05;13.20;;;6.82;;
25175;SDS011;13135;55.166;61.286;2023-09-19T11:12:50;13.90;;;8.73;;
25175;SDS011;13135;55.166;61.286;2023-09-19T11:21:41;10.80;;;5.60;;
25175;SDS011;13135;55.166;61.286;2023-09-19T11:24:27;8.13;;;5.50;;
25175;SDS011;13135;55.166;61.286;2023-09-19T11:27:12;8.82;;;5.82;;
25175;SDS011;13135;55.166;61.286;2023-09-19T11:35:59;8.68;;;6.10;;
25175;SDS011;13135;55.166;61.286;2023-09-19T11:41:51;29.25;;;18.85;;
25175;SDS011;13135;55.166;61.286;2023-09-19T11:44:35;20.23;;;14.00;;
25175;SDS011;13135;55.166;61.286;2023-09-19T11:47:20;12.80;;;8.52;;
25175;SDS011;13135;55.166;61.286;2023-09-19T11:50:05;15.80;;;10.63;;
25175;SDS011;13135;55.166;61.286;2023-09-19T11:52:51;20.00;;;10.65;;
25175;SDS011;13135;55.166;61.286;2023-09-19T11:55:39;15.48;;;9.20;;
25175;SDS011;13135;55.166;61.286;2023-09-19T11:58:24;17.12;;;10.18;;
25175;SDS011;13135;55.166;61.286;2023-09-19T12:01:21;17.08;;;9.77;;
25175;SDS011;13135;55.166;61.286;2023-09-19T12:04:03;16.50;;;9.40;;
25175;SDS011;13135;55.166;61.286;2023-09-19T12:06:57;14.43;;;9.45;;
25175;SDS011;13135;55.166;61.286;2023-09-19T12:09:39;13.75;;;8.55;;
25175;SDS011;13135;55.166;61.286;2023-09-19T12:12:25;12.75;;;8.15;;
25175;SDS011;13135;55.166;61.286;2023-09-19T12:15:14;11.63;;;7.95;;
25175;SDS011;13135;55.166;61.286;2023-09-19T12:18:00;21.50;;;14.20;;
25175;SDS011;13135;55.166;61.286;2023-09-19T12:20:48;16.30;;;11.27;;
25175;SDS011;13135;55.166;61.286;2023-09-19T12:23:34;18.15;;;9.27;;
25175;SDS011;13135;55.166;61.286;2023-09-19T12:26:19;15.07;;;8.13;;
25175;SDS011;13135;55.166;61.286;2023-09-19T12:29:04;11.55;;;7.57;;
25175;SDS011;13135;55.166;61.286;2023-09-19T12:31:49;15.52;;;8.68;;
25175;SDS011;13135;55.166;61.286;2023-09-19T12:34:36;18.15;;;9.50;;
25175;SDS011;13135;55.166;61.286;2023-09-19T12:37:21;22.00;;;13.10;;
25175;SDS011;13135;55.166;61.286;2023-09-19T12:40:07;15.93;;;9.93;;
25175;SDS011;13135;55.166;61.286;2023-09-19T12:42:52;18.27;;;8.43;;
25175;SDS011;13135;55.166;61.286;2023-09-19T12:45:37;17.00;;;9.68;;
25175;SDS011;13135;55.166;61.286;2023-09-19T12:48:26;18.80;;;8.85;;
25175;SDS011;13135;55.166;61.286;2023-09-19T12:54:39;16.85;;;8.93;;
25175;SDS011;13135;55.166;61.286;2023-09-19T12:57:24;15.40;;;8.88;;
25175;SDS011;13135;55.166;61.286;2023-09-19T13:00:12;13.43;;;8.65;;
25175;SDS011;13135;55.166;61.286;2023-09-19T13:06:04;26.67;;;15.75;;
25175;SDS011;13135;55.166;61.286;2023-09-19T13:08:49;15.50;;;10.57;;
25175;SDS011;13135;55.166;61.286;2023-09-19T13:11:36;26.30;;;14.43;;
25175;SDS011;13135;55.166;61.286;2023-09-19T13:14:21;22.17;;;12.88;;
25175;SDS011;13135;55.166;61.286;2023-09-19T13:17:09;14.95;;;9.45;;
25175;SDS011;13135;55.166;61.286;2023-09-19T13:19:54;15.02;;;9.90;;
25175;SDS011;13135;55.166;61.286;2023-09-19T13:22:41;16.73;;;10.40;;
25175;SDS011;13135;55.166;61.286;2023-09-19T13:25:26;13.57;;;9.98;;
25175;SDS011;13135;55.166;61.286;2023-09-19T13:28:10;17.65;;;11.02;;
25175;SDS011;13135;55.166;61.286;2023-09-19T13:30:55;17.00;;;10.60;;
25175;SDS011;13135;55.166;61.286;2023-09-19T13:33:43;17.67;;;10.63;;
25175;SDS011;13135;55.166;61.286;2023-09-19T13:36:30;20.50;;;10.77;;
25175;SDS011;13135;55.166;61.286;2023-09-19T13:39:13;17.75;;;10.93;;
25175;SDS011;13135;55.166;61.286;2023-09-19T13:41:56;18.62;;;10.80;;
25175;SDS011;13135;55.166;61.286;2023-09-19T13:44:40;20.75;;;11.00;;
25175;SDS011;13135;55.166;61.286;2023-09-19T13:47:25;22.55;;;10.70;;
25175;SDS011;13135;55.166;61.286;2023-09-19T13:50:10;22.27;;;12.05;;
25175;SDS011;13135;55.166;61.286;2023-09-19T13:52:55;20.90;;;13.13;;
25175;SDS011;13135;55.166;61.286;2023-09-19T13:55:39;25.00;;;14.93;;
25175;SDS011;13135;55.166;61.286;2023-09-19T13:58:25;32.53;;;19.27;;
25175;SDS011;13135;55.166;61.286;2023-09-19T14:01:12;21.17;;;10.63;;
25175;SDS011;13135;55.166;61.286;2023-09-19T14:03:57;21.98;;;10.70;;
25175;SDS011;13135;55.166;61.286;2023-09-19T14:06:44;22.98;;;11.20;;
25175;SDS011;13135;55.166;61.286;2023-09-19T14:09:28;15.60;;;9.60;;
25175;SDS011;13135;55.166;61.286;2023-09-19T14:12:13;19.12;;;10.77;;
25175;SDS011;13135;55.166;61.286;2023-09-19T14:14:58;19.52;;;10.68;;
25175;SDS011;13135;55.166;61.286;2023-09-19T14:17:43;19.73;;;10.20;;
25175;SDS011;13135;55.166;61.286;2023-09-19T14:20:27;20.17;;;12.33;;
25175;SDS011;13135;55.166;61.286;2023-09-19T14:23:11;13.83;;;8.57;;
25175;SDS011;13135;55.166;61.286;2023-09-19T14:26:00;11.55;;;5.32;;
25175;SDS011;13135;55.166;61.286;2023-09-19T14:28:42;7.03;;;4.63;;
25175;SDS011;13135;55.166;61.286;2023-09-19T14:31:27;7.30;;;4.50;;
25175;SDS011;13135;55.166;61.286;2023-09-19T14:34:13;9.35;;;3.75;;
25175;SDS011;13135;55.166;61.286;2023-09-19T14:36:58;5.65;;;3.80;;
25175;SDS011;13135;55.166;61.286;2023-09-19T14:39:43;6.47;;;4.00;;
25175;SDS011;13135;55.166;61.286;2023-09-19T14:42:26;8.10;;;4.32;;
25175;SDS011;13135;55.166;61.286;2023-09-19T14:45:10;7.20;;;4.45;;
25175;SDS011;13135;55.166;61.286;2023-09-19T14:47:55;7.17;;;4.10;;
25175;SDS011;13135;55.166;61.286;2023-09-19T14:50:40;6.12;;;3.92;;
25175;SDS011;13135;55.166;61.286;2023-09-19T14:53:25;8.93;;;4.20;;
25175;SDS011;13135;55.166;61.286;2023-09-19T14:56:11;9.35;;;4.12;;
25175;SDS011;13135;55.166;61.286;2023-09-19T14:58:55;5.77;;;4.40;;
25175;SDS011;13135;55.166;61.286;2023-09-19T15:01:40;6.43;;;4.73;;
25175;SDS011;13135;55.166;61.286;2023-09-19T15:04:25;9.27;;;4.90;;
25175;SDS011;13135;55.166;61.286;2023-09-19T15:07:10;8.60;;;4.77;;
25175;SDS011;13135;55.166;61.286;2023-09-19T15:09:55;7.53;;;4.47;;
25175;SDS011;13135;55.166;61.286;2023-09-19T15:12:38;14.50;;;5.60;;
25175;SDS011;13135;55.166;61.286;2023-09-19T15:15:20;9.17;;;4.80;;
25175;SDS011;13135;55.166;61.286;2023-09-19T15:18:04;5.80;;;4.50;;
25175;SDS011;13135;55.166;61.286;2023-09-19T15:20:49;6.47;;;4.53;;
25175;SDS011;13135;55.166;61.286;2023-09-19T15:23:34;6.53;;;4.50;;
25175;SDS011;13135;55.166;61.286;2023-09-19T15:26:19;6.83;;;4.10;;
25175;SDS011;13135;55.166;61.286;2023-09-19T15:29:03;11.13;;;7.77;;
25175;SDS011;13135;55.166;61.286;2023-09-19T15:31:48;11.17;;;5.10;;
25175;SDS011;13135;55.166;61.286;2023-09-19T15:34:33;7.27;;;4.30;;
25175;SDS011;13135;55.166;61.286;2023-09-19T15:37:18;8.40;;;3.93;;
25175;SDS011;13135;55.166;61.286;2023-09-19T15:40:05;9.90;;;4.43;;
25175;SDS011;13135;55.166;61.286;2023-09-19T15:42:51;7.50;;;4.07;;
25175;SDS011;13135;55.166;61.286;2023-09-19T15:45:36;8.03;;;4.03;;
25175;SDS011;13135;55.166;61.286;2023-09-19T15:48:20;7.77;;;3.80;;
25175;SDS011;13135;55.166;61.286;2023-09-19T15:51:04;8.17;;;3.90;;
25175;SDS011;13135;55.166;61.286;2023-09-19T15:53:50;8.95;;;3.78;;
25175;SDS011;13135;55.166;61.286;2023-09-19T15:56:34;9.77;;;3.80;;
25175;SDS011;13135;55.166;61.286;2023-09-19T15:59:18;7.33;;;3.90;;
25175;SDS011;13135;55.166;61.286;2023-09-19T16:02:03;5.10;;;3.57;;
25175;SDS011;13135;55.166;61.286;2023-09-19T16:04:47;5.53;;;3.30;;
25175;SDS011;13135;55.166;61.286;2023-09-19T16:07:32;5.17;;;3.37;;
25175;SDS011;13135;55.166;61.286;2023-09-19T16:10:17;5.37;;;2.97;;
25175;SDS011;13135;55.166;61.286;2023-09-19T16:13:02;3.77;;;2.93;;
25175;SDS011;13135;55.166;61.286;2023-09-19T16:15:49;3.37;;;2.77;;
25175;SDS011;13135;55.166;61.286;2023-09-19T16:18:34;4.17;;;2.70;;
25175;SDS011;13135;55.166;61.286;2023-09-19T16:21:19;5.80;;;2.53;;
25175;SDS011;13135;55.166;61.286;2023-09-19T16:24:04;3.60;;;2.62;;
25175;SDS011;13135;55.166;61.286;2023-09-19T16:26:51;4.03;;;2.50;;
25175;SDS011;13135;55.166;61.286;2023-09-19T16:29:31;4.33;;;2.57;;
25175;SDS011;13135;55.166;61.286;2023-09-19T16:32:16;2.80;;;2.50;;
25175;SDS011;13135;55.166;61.286;2023-09-19T16:35:03;3.53;;;2.80;;
25175;SDS011;13135;55.166;61.286;2023-09-19T16:37:47;4.07;;;2.70;;
25175;SDS011;13135;55.166;61.286;2023-09-19T16:40:32;4.00;;;2.90;;
25175;SDS011;13135;55.166;61.286;2023-09-19T16:43:17;5.93;;;4.20;;
25175;SDS011;13135;55.166;61.286;2023-09-19T16:46:02;3.20;;;2.50;;